Chazy, NY (12921)

9:47 AM EDT on July 23, 2016 (GMT -0400)
Chazy, NY | | Change Station

Elev 167 ft 44.88 °N, 73.43 °W | Updated 1 second ago

Mostly Cloudy
Mostly Cloudy
76.1 °F
Feels Like 77 °F
N
2.0
Wind Variable Wind from ESE
Gusts 4.0 mph

Today
High -- | Low -- °F
--% Chance of Precip.
Yesterday
High -- | Low -- °F
Precip. -- in
Pressure 29.77 in
Visibility 10.0 miles
Clouds Scattered Clouds 6500 ft
Mostly Cloudy 7500 ft
Heat Index 77 °F
Dew Point 70 °F
Humidity 82%
Rainfall 0.01 in
Snow Depth Not available.
5:30 AM 8:29 PM
Waning Gibbous, 85% visible
METAR KPBG 231253Z AUTO 00000KT 10SM SCT065 BKN075 22/19 A2977 RMK AO2 SLP080 T02170194
Pressure 29.77 in
Visibility 10.0 miles
Clouds Scattered Clouds 6500 ft
Mostly Cloudy 7500 ft
Heat Index 77 °F
Dew Point 70 °F
Humidity 82%
Rainfall 0.01 in
Snow Depth Not available.
5:30 AM 8:29 PM
Waning Gibbous, 85% visible
METAR KPBG 231253Z AUTO 00000KT 10SM SCT065 BKN075 22/19 A2977 RMK AO2 SLP080 T02170194

10-Day Weather Forecast

Almanac

Astronomy

Jul. 23, 2016 Rise Set
Actual Time
Civil Twilight
Nautical Twilight
Astronomical Twilight
Moon
Length of Visible Light
Length of Day
Tomorrow will be .
, % of the Moon is Illuminated

Today's Extremes

State Highs State Lows

Community

WunderPhotos

Upload Photos

1,926,818 photos uploaded!

WunderBlog® & News

Nearby

Air Quality

  Air Quality AQ Index Pollutant
Not available.

Snow Depth

Station Depth Elevation

Earthquake Activity

City Distance Mag. Time & Date
Minimum magnitude displayed is 2.5.

Coastal Water Temperatures

Place Temperature

Stations

Nearby Weather Stations

Station Location Temp. Windchill Dew Point Humidity Wind Precip. Elev Updated Type
                   

Watches & Warnings

There are currently no watches in effect.